Terminal Aerodrome Forecast
Issued by NWS Sioux Falls, SD

Home | Current Version | Previous Version | Graphics & Text | Print | Product List | Glossary On
Versions: 1 2 3 4 5 6 7 8 9 10 11 12 13
000
FTUS43 KFSD 040520
TAFFSD
TAF
KFSD 040520Z 0406/0506 30006KT P6SM BKN180
     FM041000 29006KT P6SM SCT200
     FM041400 33014KT P6SM BKN035
     FM041700 33015G23KT P6SM SCT035
     FM041900 32015G23KT P6SM SCT025
     FM042330 33009KT P6SM SKC
     FM050300 VRB03KT P6SM SKC=

USA.gov is the U.S. government's official web portal to all federal, state and local government web resources and services.